createdAt,value
2022-09-22T00:02:56.536Z,10.19
2022-09-22T00:08:28.225Z,10.14
2022-09-22T00:14:00.031Z,10.13
2022-09-22T00:19:31.730Z,10.1
2022-09-22T00:25:03.454Z,10.03
2022-09-22T00:30:35.160Z,9.94
2022-09-22T00:36:13.277Z,9.75
2022-09-22T00:41:45.000Z,9.65
2022-09-22T00:47:16.877Z,9.54
2022-09-22T00:52:48.433Z,9.56
2022-09-22T00:58:20.180Z,9.59
2022-09-22T01:03:51.964Z,9.57
2022-09-22T01:09:30.385Z,9.43
2022-09-22T01:14:55.361Z,9.29
2022-09-22T01:20:27.129Z,9.16
2022-09-22T01:20:44.929Z,9.16
2022-09-22T01:26:16.686Z,9.26
2022-09-22T01:31:48.537Z,9.28
2022-09-22T01:37:20.089Z,9.23
2022-09-22T01:42:51.856Z,9.05
2022-09-22T01:48:23.524Z,8.91
2022-09-22T01:53:55.296Z,8.92
2022-09-22T01:59:27.023Z,8.85
2022-09-22T02:04:58.706Z,8.7
2022-09-22T02:10:30.440Z,8.66
2022-09-22T02:16:02.222Z,8.63
2022-09-22T02:21:38.298Z,8.58
2022-09-22T02:27:09.982Z,8.47
2022-09-22T02:32:41.702Z,8.44
2022-09-22T02:38:13.400Z,8.38
2022-09-22T02:43:45.159Z,8.45
2022-09-22T02:49:16.849Z,8.38
2022-09-22T02:54:48.619Z,8.27
2022-09-22T03:00:20.412Z,8.22
2022-09-22T03:05:52.228Z,8.2
2022-09-22T03:11:23.789Z,8.18
2022-09-22T03:16:55.525Z,7.98
2022-09-22T03:22:33.642Z,7.98
2022-09-22T03:28:05.338Z,7.96
2022-09-22T03:33:37.565Z,7.94
2022-09-22T03:39:08.773Z,7.93
2022-09-22T03:44:40.613Z,7.85
2022-09-22T03:50:12.258Z,7.92
2022-09-22T03:55:43.921Z,7.9
2022-09-22T04:01:15.688Z,7.91
2022-09-22T04:06:47.358Z,7.94
2022-09-22T04:12:19.156Z,7.78
2022-09-22T04:17:50.821Z,7.72
2022-09-22T04:23:29.037Z,7.66
2022-09-22T04:29:00.809Z,7.75
2022-09-22T04:34:32.434Z,7.64
2022-09-22T04:40:04.298Z,7.67
2022-09-22T04:45:39.467Z,7.68
2022-09-22T04:51:07.617Z,7.62
2022-09-22T04:56:39.334Z,7.53
2022-09-22T05:02:11.048Z,7.45
2022-09-22T05:07:42.756Z,7.49
2022-09-22T05:13:14.666Z,7.5
2022-09-22T05:18:46.206Z,7.5
2022-09-22T05:24:24.381Z,7.52
2022-09-22T05:29:56.215Z,7.58
2022-09-22T05:35:28.718Z,7.7
2022-09-22T05:40:59.597Z,7.77
2022-09-22T05:46:31.289Z,7.72
2022-09-22T05:52:03.073Z,7.68
2022-09-22T05:57:34.793Z,7.77
2022-09-22T06:03:06.527Z,7.88
2022-09-22T06:08:38.228Z,7.92
2022-09-22T06:14:09.943Z,8.08
2022-09-22T06:19:41.742Z,8.24
2022-09-22T06:25:17.823Z,8.38
2022-09-22T06:30:49.596Z,8.59
2022-09-22T06:36:21.271Z,8.72
2022-09-22T06:41:52.986Z,8.67
2022-09-22T06:47:24.784Z,9.21
2022-09-22T06:52:56.431Z,9.47
2022-09-22T06:58:28.174Z,9.62
2022-09-22T07:03:59.878Z,9.95
2022-09-22T07:09:31.611Z,9.9
2022-09-22T07:15:03.284Z,9.82
2022-09-22T07:20:35.088Z,10.38
2022-09-22T07:26:13.178Z,10.77
2022-09-22T07:31:44.981Z,10.59
2022-09-22T07:37:16.609Z,10.51
2022-09-22T07:42:48.392Z,11.16
2022-09-22T07:48:20.083Z,11.94
2022-09-22T07:53:51.786Z,12.56
2022-09-22T07:59:23.561Z,12.93
2022-09-22T08:04:55.307Z,13.07
2022-09-22T08:10:26.908Z,13.24
2022-09-22T08:15:58.747Z,13.25
2022-09-22T08:21:30.414Z,13.72
2022-09-22T08:27:08.574Z,13.91
2022-09-22T08:32:40.319Z,13.9
2022-09-22T08:38:12.909Z,14.37
2022-09-22T08:43:43.760Z,14.09
2022-09-22T08:49:15.488Z,14.85
2022-09-22T08:54:47.164Z,14.93
2022-09-22T09:00:19.019Z,14.7
2022-09-22T09:05:50.617Z,14.99
2022-09-22T09:16:54.134Z,15.65
2022-09-22T09:22:25.805Z,15.37
2022-09-22T09:28:03.948Z,15.93
2022-09-22T09:33:35.726Z,15.9
2022-09-22T09:39:07.581Z,16.12
2022-09-22T09:44:39.187Z,16.29
2022-09-22T09:50:10.901Z,16.41
2022-09-22T09:55:42.561Z,16.56
2022-09-22T10:01:14.397Z,16.51
2022-09-22T10:06:46.062Z,17.13
2022-09-22T10:12:17.789Z,17.16
2022-09-22T10:17:49.522Z,17.21
2022-09-22T10:23:21.248Z,17.31
2022-09-22T10:28:57.469Z,17.01
2022-09-22T10:34:29.092Z,17.38
2022-09-22T10:40:00.853Z,17.6
2022-09-22T10:45:32.868Z,17.68
2022-09-22T10:51:04.355Z,18.27
2022-09-22T10:56:36.116Z,18.22
2022-09-22T11:02:07.822Z,18.23
2022-09-22T11:07:39.513Z,18.25
2022-09-22T11:13:11.252Z,18.4
2022-09-22T11:18:43.014Z,18.42
2022-09-22T11:24:14.710Z,18.63
2022-09-22T11:29:50.838Z,18.41
2022-09-22T11:35:22.557Z,18.91
2022-09-22T11:40:54.310Z,19.13
2022-09-22T11:46:26.062Z,18.99
2022-09-22T11:51:57.766Z,19.36
2022-09-22T11:57:29.525Z,19.5
2022-09-22T12:03:02.569Z,19.82
2022-09-22T12:08:32.909Z,19.83
2022-09-22T12:14:04.637Z,19.87
2022-09-22T12:19:36.377Z,19.51
2022-09-22T12:25:09.241Z,19.97
2022-09-22T12:30:44.252Z,19.76
2022-09-22T12:36:15.985Z,19.96
2022-09-22T12:41:47.650Z,20.14
2022-09-22T12:47:19.483Z,19.83
2022-09-22T12:52:51.119Z,20.22
2022-09-22T12:58:22.863Z,20.13
2022-09-22T13:03:54.590Z,19.65
2022-09-22T13:09:26.286Z,20.04
2022-09-22T13:14:58.023Z,19.62
2022-09-22T13:20:29.734Z,19.53
2022-09-22T13:26:01.494Z,19.99
2022-09-22T13:31:39.639Z,19.99
2022-09-22T13:37:11.369Z,20.05
2022-09-22T13:42:43.180Z,19.9
2022-09-22T13:48:14.798Z,20.43
2022-09-22T13:53:46.553Z,20.39
2022-09-22T13:59:18.229Z,20.34
2022-09-22T14:04:49.934Z,20.69
2022-09-22T14:10:21.663Z,20.69
2022-09-22T14:15:53.362Z,20.29
2022-09-22T14:21:25.109Z,20.27
2022-09-22T14:27:00.190Z,20.61
2022-09-22T14:32:34.989Z,20.73
2022-09-22T14:38:13.076Z,20.74
2022-09-22T14:43:38.388Z,20.5
2022-09-22T14:49:10.117Z,20.37
2022-09-22T14:54:41.869Z,20.24
2022-09-22T15:00:13.577Z,20.16
2022-09-22T15:05:45.305Z,20.28
2022-09-22T15:11:16.824Z,20.33
2022-09-22T15:16:48.581Z,20.41
2022-09-22T15:22:20.255Z,20.26
2022-09-22T15:27:52.011Z,20.59
2022-09-22T15:33:28.191Z,20.21
2022-09-22T15:38:59.880Z,20.33
2022-09-22T15:44:31.759Z,20.37
2022-09-22T15:50:03.497Z,20.18
2022-09-22T15:55:35.194Z,20.11
2022-09-22T16:01:06.953Z,20.04
2022-09-22T16:06:38.829Z,20.07
2022-09-22T16:12:10.454Z,19.78
2022-09-22T16:17:42.117Z,19.72
2022-09-22T16:23:13.853Z,19.75
2022-09-22T16:28:45.545Z,19.52
2022-09-22T16:34:21.726Z,19.39
2022-09-22T16:39:53.357Z,19.18
2022-09-22T16:45:25.077Z,19.13
2022-09-22T16:50:57.017Z,19.06
2022-09-22T16:56:28.528Z,18.91
2022-09-22T17:02:00.277Z,18.48
2022-09-22T17:07:32.068Z,18.53
2022-09-22T17:13:03.720Z,18.28
2022-09-22T17:18:35.409Z,18.18
2022-09-22T17:24:07.151Z,18.15
2022-09-22T17:29:39.080Z,17.78
2022-09-22T17:35:15.020Z,17.83
2022-09-22T17:40:46.837Z,17.76
2022-09-22T17:46:18.535Z,17.55
2022-09-22T17:51:50.246Z,17.48
2022-09-22T17:57:21.914Z,17.39
2022-09-22T18:02:53.979Z,17.18
2022-09-22T18:08:25.449Z,16.98
2022-09-22T18:13:57.063Z,16.8
2022-09-22T18:19:28.781Z,16.79
2022-09-22T18:25:00.484Z,16.68
2022-09-22T18:30:32.350Z,16.66
2022-09-22T18:36:10.373Z,16.66
2022-09-22T18:41:42.153Z,16.41
2022-09-22T18:47:13.841Z,16.4
2022-09-22T18:52:45.508Z,16.42
2022-09-22T18:58:17.204Z,16.37
2022-09-22T19:03:48.944Z,16.34
2022-09-22T19:09:20.715Z,16.17
2022-09-22T19:14:52.399Z,15.97
2022-09-22T19:20:24.456Z,15.87
2022-09-22T19:25:55.864Z,15.69
2022-09-22T19:31:27.619Z,15.5
2022-09-22T19:37:03.678Z,15.36
2022-09-22T19:42:39.403Z,15.09
2022-09-22T19:48:07.137Z,15.14
2022-09-22T19:53:38.826Z,15.14
2022-09-22T19:59:10.609Z,15.08
2022-09-22T20:04:42.340Z,14.93
2022-09-22T20:10:14.016Z,14.8
2022-09-22T20:15:45.848Z,14.72
2022-09-22T20:21:17.535Z,14.59
2022-09-22T20:26:49.234Z,14.46
2022-09-22T20:32:20.929Z,14.42
2022-09-22T20:37:57.048Z,14.33
2022-09-22T20:43:28.816Z,14.19
2022-09-22T20:49:00.528Z,14.12
2022-09-22T20:54:32.235Z,13.97
2022-09-22T21:00:03.960Z,13.94
2022-09-22T21:05:35.675Z,13.95
2022-09-22T21:11:07.479Z,13.99
2022-09-22T21:16:39.123Z,13.95
2022-09-22T21:22:10.857Z,13.94
2022-09-22T21:27:42.779Z,13.91
2022-09-22T21:33:14.272Z,14.04
2022-09-22T21:38:50.475Z,13.97
2022-09-22T21:44:22.190Z,13.9
2022-09-22T21:49:53.830Z,13.69
2022-09-22T21:55:25.634Z,13.78
2022-09-22T22:00:57.323Z,13.89
2022-09-22T22:06:29.059Z,13.76
2022-09-22T22:12:00.770Z,13.78
2022-09-22T22:17:32.514Z,13.66
2022-09-22T22:23:04.214Z,13.71
2022-09-22T22:28:35.906Z,13.56
2022-09-22T22:34:07.722Z,13.52
2022-09-22T22:39:45.810Z,13.58
2022-09-22T22:45:17.686Z,13.48
2022-09-22T22:50:49.205Z,13.4
2022-09-22T22:56:20.913Z,13.34
2022-09-22T23:01:52.673Z,13.38
2022-09-22T23:07:24.389Z,13.28
2022-09-22T23:12:56.201Z,13.28
2022-09-22T23:18:27.837Z,13.19
2022-09-22T23:23:59.598Z,13.26
2022-09-22T23:29:31.268Z,13.16
2022-09-22T23:35:02.995Z,13.1
2022-09-22T23:40:39.163Z,13.15
2022-09-22T23:46:10.841Z,13.16
2022-09-22T23:51:42.621Z,13.0
2022-09-22T23:57:14.297Z,12.85
